Time;durP1;ratioP1;P1;durP2;ratioP2;P2;SDS_P1;SDS_P2;PMS_P1;PMS_P2;Temp;Humidity;BMP_temperature;BMP_pressure;BME280_temperature;BME280_humidity;BME280_pressure;Samples;Min_cycle;Max_cycle;Signal;HPM_P1;HPM_P2
2022/09/06 00:03:15;;;;;;;;;;;20.40;36.90;;;18.52;40.06;101890.53;12253436;19;20226;-86
2022/09/06 00:07:17;;;;;;;;;;;20.50;37.30;;;18.48;40.08;101886.41;12255552;19;19936;-87
2022/09/06 00:11:19;;;;;;;;;;;20.30;36.90;;;18.37;40.18;101880.19;12254694;19;19924;-84
2022/09/06 00:15:21;;;;;;;;;;;20.50;37.00;;;18.29;40.35;101878.91;12252352;19;19922;-85
2022/09/06 00:19:22;;;;;;;;;;;20.20;36.90;;;18.27;40.38;101877.31;12252406;19;19925;-86
2022/09/06 00:23:24;;;;;;;;;;;20.10;36.90;;;18.05;40.45;101851.50;12250303;19;19915;-84
2022/09/06 00:27:27;;;;;;;;;;;20.10;37.00;;;18.09;40.36;101869.72;12250711;19;19918;-86
2022/09/06 00:31:28;;;;;;;;;;;20.00;36.90;;;18.06;40.16;101872.53;12250811;19;20313;-86
2022/09/06 00:35:30;;;;;;;;;;;20.00;36.90;;;17.71;40.66;101822.06;12250642;19;19944;-86
2022/09/06 00:39:31;;;;;;;;;;;19.90;36.90;;;17.46;40.08;101783.25;12250940;19;19926;-87
2022/09/06 00:43:33;;;;;;;;;;;19.80;36.80;;;17.86;40.21;101846.66;12247689;19;19926;-87
2022/09/06 00:47:36;;;;;;;;;;;20.20;37.00;;;17.98;40.43;101871.38;12247697;19;20628;-85
2022/09/06 00:51:38;;;;;;;;;;;19.80;36.90;;;17.94;40.31;101869.91;12248565;19;19942;-86
2022/09/06 00:55:41;;;;;;;;;;;19.70;36.80;;;17.66;40.20;101830.31;12249344;19;19926;-86
2022/09/06 00:59:44;;;;;;;;;;;20.10;37.00;;;17.83;40.38;101865.34;12247383;19;19919;-86
2022/09/06 01:03:45;;;;;;;;;;;19.70;37.30;;;17.83;40.59;101857.44;12247146;19;20235;-85
2022/09/06 01:08:23;;;;;;;;;;;19.70;36.80;;;17.35;40.58;101778.69;12248715;19;19918;-87
2022/09/06 01:12:31;;;;;;;;;;;19.70;36.80;;;17.92;40.47;101872.66;12241995;19;19919;-86
2022/09/06 01:17:06;;;;;;;;;;;19.70;36.90;;;17.85;40.46;101860.81;12246426;19;19926;-85
2022/09/06 01:21:41;;;;;;;;;;;19.70;36.80;;;17.90;40.56;101866.59;12244725;19;19919;-85
2022/09/06 01:26:04;;;;;;;;;;;19.70;36.90;;;17.85;40.49;101869.59;12249528;19;19914;-87
2022/09/06 01:30:08;;;;;;;;;;;19.70;36.80;;;17.79;40.56;101866.50;12245816;19;20034;-86
2022/09/06 01:34:20;;;;;;;;;;;19.60;36.70;;;17.75;40.44;101859.72;12247386;19;20270;-85
2022/09/06 01:38:21;;;;;;;;;;;19.60;36.70;;;17.78;40.21;101859.50;12247399;19;19918;-87
2022/09/06 01:42:26;;;;;;;;;;;19.60;36.80;;;17.47;40.39;101809.56;12245809;19;19925;-87
2022/09/06 01:46:38;;;;;;;;;;;19.60;36.80;;;17.81;40.32;101869.88;12247288;19;19911;-86
2022/09/06 01:51:18;;;;;;;;;;;19.60;36.80;;;17.85;40.24;101866.09;12244023;19;20258;-84
2022/09/06 01:55:53;;;;;;;;;;;19.60;36.80;;;17.80;40.50;101857.63;12245471;19;19986;-86
2022/09/06 02:00:07;;;;;;;;;;;19.60;36.80;;;17.76;40.25;101862.22;12245622;19;19915;-86
2022/09/06 02:04:26;;;;;;;;;;;19.60;36.70;;;17.61;40.58;101832.41;12240741;19;19982;-87
2022/09/06 02:08:35;;;;;;;;;;;19.50;36.80;;;17.67;40.42;101845.22;12245017;19;19925;-88
2022/09/06 02:12:39;;;;;;;;;;;19.50;36.70;;;17.60;40.61;101836.00;12246052;19;19930;-88
2022/09/06 02:16:44;;;;;;;;;;;19.50;36.80;;;17.53;40.32;101832.09;12247109;19;19949;-85
2022/09/06 02:20:51;;;;;;;;;;;19.70;36.90;;;17.51;40.33;101836.63;12242082;19;19934;-88
2022/09/06 02:24:55;;;;;;;;;;;19.50;36.80;;;17.36;40.26;101813.88;12246187;19;20472;-87
2022/09/06 02:28:57;;;;;;;;;;;19.60;36.80;;;17.53;40.22;101839.16;12245131;19;19911;-86
2022/09/06 02:33:03;;;;;;;;;;;19.70;36.90;;;17.36;40.40;101811.22;12245629;19;19919;-86
2022/09/06 02:37:06;;;;;;;;;;;19.40;36.80;;;17.34;40.39;101821.91;12246983;19;19922;-87
2022/09/06 02:41:08;;;;;;;;;;;19.30;36.80;;;17.33;40.49;101816.72;12249383;19;19915;-87
2022/09/06 02:45:09;;;;;;;;;;;19.30;36.80;;;17.30;40.47;101823.03;12253925;19;19926;-86
2022/09/06 02:49:11;;;;;;;;;;;19.30;36.80;;;17.30;40.53;101827.47;12253854;19;20642;-86
2022/09/06 02:53:13;;;;;;;;;;;19.20;36.80;;;17.27;40.51;101822.41;12254632;19;19915;-88
2022/09/06 02:57:15;;;;;;;;;;;19.30;36.90;;;17.27;40.45;101827.69;12255535;19;19924;-87
2022/09/06 03:01:16;;;;;;;;;;;19.10;36.90;;;17.14;40.58;101803.88;12254539;19;19911;-86
2022/09/06 03:05:18;;;;;;;;;;;19.10;36.90;;;17.19;40.65;101830.81;12257196;19;19919;-86
2022/09/06 03:09:19;;;;;;;;;;;19.10;36.90;;;17.25;40.50;101814.56;12255305;19;19967;-87
2022/09/06 03:13:23;;;;;;;;;;;19.20;37.10;;;17.25;40.43;101817.22;12258525;19;19915;-86
2022/09/06 03:17:24;;;;;;;;;;;19.20;37.10;;;16.78;40.58;101757.84;12259930;19;19923;-87
2022/09/06 03:21:26;;;;;;;;;;;19.40;37.10;;;17.07;40.75;101800.81;12256704;19;19936;-86
2022/09/06 03:25:28;;;;;;;;;;;19.10;37.00;;;16.98;40.68;101791.66;12256405;19;19934;-86
2022/09/06 03:29:29;;;;;;;;;;;19.10;37.10;;;17.00;40.68;101802.16;12255149;19;20374;-85
2022/09/06 03:33:31;;;;;;;;;;;19.00;37.20;;;16.47;40.77;101716.72;12257664;19;19910;-88
2022/09/06 03:37:32;;;;;;;;;;;19.30;37.20;;;17.05;40.77;101815.88;12259311;19;19986;-85
2022/09/06 03:41:34;;;;;;;;;;;19.00;37.20;;;16.54;40.92;101731.22;12258014;19;19926;-86
2022/09/06 03:45:35;;;;;;;;;;;19.20;37.50;;;16.97;40.96;101794.44;12257943;19;20326;-86
2022/09/06 03:49:38;;;;;;;;;;;18.90;37.20;;;16.99;40.79;101797.81;12254955;19;19914;-85
2022/09/06 03:53:40;;;;;;;;;;;18.90;37.30;;;16.95;40.77;101794.50;12256895;19;19914;-86
2022/09/06 03:57:41;;;;;;;;;;;19.10;37.40;;;16.95;40.74;101802.44;12256761;19;20333;-85
2022/09/06 04:01:43;;;;;;;;;;;19.10;37.40;;;16.99;41.09;101809.22;12256155;19;19922;-85
2022/09/06 04:05:45;;;;;;;;;;;19.20;37.50;;;17.06;40.74;101814.09;12257510;19;19919;-86
2022/09/06 04:09:47;;;;;;;;;;;18.80;37.40;;;17.06;40.81;101812.28;12253983;19;19918;-86
2022/09/06 04:13:48;;;;;;;;;;;18.80;37.40;;;16.94;40.83;101799.91;12256527;19;19918;-87
2022/09/06 04:17:50;;;;;;;;;;;18.80;37.30;;;16.95;40.82;101813.00;12256015;19;19919;-87
2022/09/06 04:21:51;;;;;;;;;;;18.90;37.60;;;16.92;40.54;101799.16;12254392;19;20325;-86
2022/09/06 04:25:55;;;;;;;;;;;18.90;37.60;;;16.72;41.03;101774.03;12252935;19;19919;-86
2022/09/06 04:29:56;;;;;;;;;;;18.80;37.40;;;17.01;40.87;101809.97;12254584;19;19915;-86
2022/09/06 04:33:57;;;;;;;;;;;18.80;37.40;;;16.87;40.95;101788.06;12254318;19;19919;-85
2022/09/06 04:38:00;;;;;;;;;;;19.10;37.60;;;16.92;40.91;101801.78;12251649;19;19919;-87
2022/09/06 04:42:01;;;;;;;;;;;18.80;37.50;;;16.87;40.83;101785.41;12249877;19;19951;-85
2022/09/06 04:46:23;;;;;;;;;;;18.70;37.50;;;16.53;41.03;101732.19;12252601;19;19915;-86
2022/09/06 04:50:25;;;;;;;;;;;18.80;37.60;;;16.88;41.14;101780.06;12249907;19;19911;-86
2022/09/06 04:54:38;;;;;;;;;;;18.70;37.50;;;16.67;41.24;101768.22;12250379;19;19917;-87
2022/09/06 04:58:41;;;;;;;;;;;18.70;37.70;;;16.71;41.17;101777.59;12249697;19;19938;-85
2022/09/06 05:02:43;;;;;;;;;;;18.90;37.80;;;16.34;41.09;101712.25;12247022;19;19914;-86
2022/09/06 05:06:45;;;;;;;;;;;18.80;37.70;;;16.56;41.28;101753.06;12249685;19;19915;-87
2022/09/06 05:10:50;;;;;;;;;;;18.60;37.70;;;16.79;41.13;101791.19;12245870;19;19975;-85
2022/09/06 05:14:52;;;;;;;;;;;18.90;37.70;;;16.74;41.40;101786.19;12249870;19;19940;-86
2022/09/06 05:18:53;;;;;;;;;;;18.60;37.60;;;16.77;41.16;101782.53;12247579;19;19923;-85
2022/09/06 05:22:54;;;;;;;;;;;18.60;38.00;;;16.56;41.05;101748.63;12247358;19;20461;-87
2022/09/06 05:26:56;;;;;;;;;;;18.60;37.80;;;16.66;41.32;101763.84;12248876;19;19911;-86
2022/09/06 05:31:05;;;;;;;;;;;18.60;38.10;;;16.76;41.36;101786.06;12243418;19;20318;-86
2022/09/06 05:35:06;;;;;;;;;;;18.60;37.90;;;16.81;41.17;101790.13;12245612;19;19967;-84
2022/09/06 05:39:08;;;;;;;;;;;18.60;38.10;;;16.77;41.30;101782.53;12249780;19;19944;-86
2022/09/06 05:43:09;;;;;;;;;;;18.60;37.90;;;16.78;41.42;101778.94;12249346;19;20247;-87
2022/09/06 05:47:11;;;;;;;;;;;18.60;38.00;;;16.74;41.33;101778.28;12249525;19;19911;-86
2022/09/06 05:51:12;;;;;;;;;;;18.70;38.10;;;16.29;41.34;101690.63;12249781;19;19923;-86
2022/09/06 05:55:14;;;;;;;;;;;18.70;37.90;;;16.79;41.23;101765.63;12252720;19;19911;-86
2022/09/06 05:59:15;;;;;;;;;;;18.90;38.30;;;16.36;41.34;101685.78;12250000;19;19907;-86
2022/09/06 06:03:17;;;;;;;;;;;18.80;38.10;;;16.89;41.31;101754.50;12245928;19;19919;-87
2022/09/06 06:07:18;;;;;;;;;;;18.80;38.10;;;16.66;41.35;101704.06;12251181;19;20517;-87
2022/09/06 06:11:20;;;;;;;;;;;18.90;37.90;;;16.64;41.34;101684.84;12254281;19;19918;-86
2022/09/06 06:15:22;;;;;;;;;;;18.90;37.90;;;16.63;41.45;101679.66;12264480;19;19926;-87
2022/09/06 06:19:25;;;;;;;;;;;19.00;38.20;;;17.27;41.38;101765.16;12263278;19;19915;-86
2022/09/06 06:23:26;;;;;;;;;;;19.30;38.30;;;17.46;41.55;101770.06;12259097;19;19914;-86
2022/09/06 06:27:28;;;;;;;;;;;19.10;38.30;;;17.39;41.41;101753.78;12261975;19;20016;-86
2022/09/06 06:31:30;;;;;;;;;;;19.10;38.30;;;16.90;41.37;101669.13;12259423;19;19925;-85
2022/09/06 06:35:32;;;;;;;;;;;19.20;38.10;;;17.47;41.61;101745.31;12257676;19;20353;-86
2022/09/06 06:39:33;;;;;;;;;;;19.30;38.10;;;17.63;41.48;101751.28;12254069;19;19939;-87
2022/09/06 06:43:37;;;;;;;;;;;19.70;38.30;;;17.53;41.36;101731.72;12254771;19;19915;-85
2022/09/06 06:47:39;;;;;;;;;;;19.40;38.20;;;17.78;41.43;101761.72;12258389;19;20307;-86
2022/09/06 06:51:40;;;;;;;;;;;19.60;38.00;;;17.82;41.45;101768.50;12257321;19;20279;-86
2022/09/06 06:55:45;;;;;;;;;;;19.50;38.00;;;17.79;41.39;101744.94;12258387;19;19923;-86
2022/09/06 06:59:47;;;;;;;;;;;19.60;38.20;;;17.94;41.30;101754.47;12252988;19;19947;-86
2022/09/06 07:03:49;;;;;;;;;;;19.60;38.30;;;17.97;41.33;101737.53;12252894;19;19906;-85
2022/09/06 07:07:50;;;;;;;;;;;19.80;38.30;;;18.19;41.45;101753.56;12255030;19;19943;-85
2022/09/06 07:11:52;;;;;;;;;;;19.80;38.30;;;18.13;41.58;101728.41;12257279;19;19923;-85
2022/09/06 07:16:20;;;;;;;;;;;19.80;38.30;;;18.37;41.36;101745.31;12257095;19;19937;-86
2022/09/06 07:20:24;;;;;;;;;;;20.00;38.20;;;18.44;41.35;101747.38;12255917;19;19923;-84
2022/09/06 07:24:26;;;;;;;;;;;20.20;38.20;;;18.58;41.29;101755.16;12252938;19;19982;-84
2022/09/06 07:28:27;;;;;;;;;;;20.20;38.20;;;18.71;41.28;101760.41;12255914;19;20547;-86
2022/09/06 07:32:30;;;;;;;;;;;20.30;38.10;;;18.70;41.38;101742.00;12254630;19;19939;-84
2022/09/06 07:36:31;;;;;;;;;;;20.40;38.10;;;18.84;41.43;101738.38;12257166;19;19923;-87
2022/09/06 07:40:33;;;;;;;;;;;20.50;38.20;;;18.82;41.38;101719.94;12253368;19;19927;-85
2022/09/06 07:44:35;;;;;;;;;;;20.60;38.20;;;19.11;41.43;101752.19;12253076;19;19959;-84
2022/09/06 07:48:39;;;;;;;;;;;20.80;38.30;;;19.35;41.17;101768.03;12254140;19;19919;-85
2022/09/06 07:52:41;;;;;;;;;;;20.90;38.30;;;19.52;41.23;101763.25;12254193;19;19963;-84
2022/09/06 07:56:42;;;;;;;;;;;21.00;38.30;;;19.69;41.20;101768.16;12253945;19;19919;-86
2022/09/06 08:00:44;;;;;;;;;;;21.20;38.20;;;19.79;41.09;101758.50;12249517;19;19953;-86
2022/09/06 08:04:45;;;;;;;;;;;21.40;38.30;;;19.86;41.31;101738.53;12254710;19;20326;-85
2022/09/06 08:08:47;;;;;;;;;;;21.50;38.20;;;20.08;40.96;101750.91;12256389;19;19911;-83
2022/09/06 08:12:53;;;;;;;;;;;21.70;38.20;;;20.00;41.07;101702.13;12256739;19;19911;-84
2022/09/06 08:16:54;;;;;;;;;;;21.80;38.20;;;20.39;41.18;101755.59;12254494;19;19926;-85
2022/09/06 08:21:07;;;;;;;;;;;21.90;38.10;;;20.29;41.32;101719.19;12252640;19;20261;-85
2022/09/06 08:25:09;;;;;;;;;;;22.40;38.20;;;20.64;41.25;101765.13;12254163;19;19922;-84
2022/09/06 08:29:11;;;;;;;;;;;22.20;38.20;;;20.60;41.12;101724.69;12251784;19;20326;-86
2022/09/06 08:33:14;;;;;;;;;;;22.60;38.30;;;20.79;40.85;101750.56;12250435;19;20376;-84
2022/09/06 08:37:16;;;;;;;;;;;22.60;38.20;;;20.91;41.14;101764.66;12247419;19;19911;-84
2022/09/06 08:41:45;;;;;;;;;;;22.50;38.10;;;21.06;40.91;101760.72;12248512;19;19929;-84
2022/09/06 08:45:54;;;;;;;;;;;22.60;38.10;;;21.07;40.94;101733.22;12246431;19;19914;-84
2022/09/06 08:50:01;;;;;;;;;;;22.90;38.10;;;21.15;40.71;101733.41;12246832;19;19915;-84
2022/09/06 08:54:17;;;;;;;;;;;22.80;38.00;;;21.25;41.12;101720.16;12247508;19;19927;-85
2022/09/06 08:58:52;;;;;;;;;;;22.90;38.00;;;21.51;40.98;101739.25;12246952;19;19914;-84
2022/09/06 09:03:05;;;;;;;;;;;23.00;38.00;;;21.62;40.82;101736.50;12245524;19;19915;-86
2022/09/06 09:07:43;;;;;;;;;;;23.10;38.00;;;21.76;41.00;101737.97;12247930;19;19919;-84
2022/09/06 09:11:48;;;;;;;;;;;23.20;38.00;;;21.85;40.88;101720.41;12247520;19;19965;-84
2022/09/06 09:15:50;;;;;;;;;;;23.40;38.10;;;22.06;40.57;101729.16;12248876;19;19914;-84
2022/09/06 09:19:52;;;;;;;;;;;23.50;38.00;;;22.17;40.84;101714.03;12247891;19;20282;-83
2022/09/06 09:23:55;;;;;;;;;;;23.70;38.10;;;22.22;40.74;101690.56;12246687;19;20519;-86
2022/09/06 09:27:57;;;;;;;;;;;23.80;37.90;;;22.36;40.51;101698.19;12249349;19;19945;-84
2022/09/06 09:31:58;;;;;;;;;;;24.00;37.90;;;22.53;40.73;101713.47;12249928;19;20389;-85
2022/09/06 09:36:03;;;;;;;;;;;24.00;37.90;;;22.42;40.49;101681.66;12253822;19;19915;-84
2022/09/06 09:40:06;;;;;;;;;;;24.10;37.80;;;22.57;40.44;101695.38;12253389;19;19924;-84
2022/09/06 09:44:16;;;;;;;;;;;24.20;37.80;;;22.42;40.49;101670.16;12252193;19;19935;-83
2022/09/06 09:48:23;;;;;;;;;;;24.20;37.60;;;22.66;40.78;101691.91;12254777;19;19907;-85
2022/09/06 09:52:30;;;;;;;;;;;24.30;37.60;;;22.70;40.49;101679.13;12264490;19;19928;-85
2022/09/06 09:56:40;;;;;;;;;;;24.30;37.70;;;22.79;40.58;101691.63;12262020;19;19918;-85
2022/09/06 10:00:42;;;;;;;;;;;24.40;37.60;;;22.77;40.42;101676.75;12258285;19;19919;-87
2022/09/06 10:04:45;;;;;;;;;;;24.40;37.70;;;22.87;40.30;101673.09;12253249;19;19930;-85
2022/09/06 10:08:47;;;;;;;;;;;24.50;37.60;;;22.75;40.51;101651.09;12256742;19;19907;-85
2022/09/06 10:13:04;;;;;;;;;;;24.50;37.60;;;22.84;40.34;101654.72;12260729;19;19948;-85
2022/09/06 10:17:06;;;;;;;;;;;24.50;37.40;;;22.96;40.28;101668.78;12261003;19;19919;-85
2022/09/06 10:21:14;;;;;;;;;;;24.60;37.60;;;22.70;40.47;101618.72;12254433;19;20361;-85
2022/09/06 10:25:45;;;;;;;;;;;24.60;37.50;;;23.07;40.30;101673.09;12259712;19;19935;-84
2022/09/06 10:30:07;;;;;;;;;;;24.70;37.50;;;23.12;40.25;101668.19;12256336;19;19919;-85
2022/09/06 10:34:23;;;;;;;;;;;24.70;37.50;;;23.18;40.38;101672.94;12257088;19;19915;-86
2022/09/06 10:38:55;;;;;;;;;;;24.70;37.50;;;23.26;40.16;101661.56;12259421;19;19918;-85
2022/09/06 10:42:58;;;;;;;;;;;24.80;37.50;;;23.24;40.46;101644.88;12256088;19;20018;-85
2022/09/06 10:47:15;;;;;;;;;;;24.80;37.50;;;23.27;40.05;101632.06;12258133;19;19922;-86
2022/09/06 10:51:36;;;;;;;;;;;24.90;37.40;;;23.42;40.21;101643.97;12254905;19;19925;-86
2022/09/06 10:55:39;;;;;;;;;;;24.90;37.40;;;23.37;40.12;101624.91;12252928;19;19927;-85
2022/09/06 11:00:13;;;;;;;;;;;25.10;37.40;;;23.44;40.04;101640.28;12250413;19;19958;-85
2022/09/06 11:04:22;;;;;;;;;;;25.10;37.40;;;23.51;39.92;101630.72;12251277;19;19942;-86
2022/09/06 11:08:29;;;;;;;;;;;25.10;37.30;;;23.53;40.35;101634.09;12253737;19;19918;-86
2022/09/06 11:12:59;;;;;;;;;;;25.10;37.30;;;23.57;40.29;101638.13;12252419;19;19926;-86
2022/09/06 11:17:06;;;;;;;;;;;25.10;37.40;;;23.58;40.28;101647.84;12255688;19;19928;-87
2022/09/06 11:21:35;;;;;;;;;;;25.20;37.30;;;23.59;40.28;101625.50;12251234;19;20315;-88
2022/09/06 11:25:40;;;;;;;;;;;25.20;37.20;;;23.71;39.87;101632.38;12255120;19;19918;-87
2022/09/06 11:29:44;;;;;;;;;;;25.30;37.30;;;23.67;40.11;101609.59;12252207;19;19919;-87
2022/09/06 11:33:48;;;;;;;;;;;25.30;37.20;;;23.90;39.83;101609.22;12255245;19;20329;-88
2022/09/06 11:38:25;;;;;;;;;;;25.40;37.30;;;24.02;39.85;101610.69;12255202;19;19921;-86
2022/09/06 11:42:45;;;;;;;;;;;25.50;37.50;;;24.26;39.74;101610.94;12253244;19;19918;-88
2022/09/06 11:46:47;;;;;;;;;;;25.60;37.50;;;24.44;39.68;101623.47;12257769;19;19927;-86
2022/09/06 11:50:58;;;;;;;;;;;25.80;37.60;;;24.56;39.38;101611.56;12257822;19;20340;-86
2022/09/06 11:54:59;;;;;;;;;;;25.90;37.50;;;24.48;39.53;101592.78;12257583;19;19915;-87
2022/09/06 11:59:10;;;;;;;;;;;26.00;37.40;;;24.40;39.85;101585.50;12256137;19;19910;-88
2022/09/06 12:03:47;;;;;;;;;;;26.30;36.80;;;24.52;39.34;101610.19;12252588;19;19919;-88
2022/09/06 12:08:13;;;;;;;;;;;26.00;36.70;;;24.48;39.46;101603.47;12254891;19;19943;-88
2022/09/06 12:12:51;;;;;;;;;;;26.10;37.20;;;24.47;39.34;101597.28;12248242;19;19978;-86
2022/09/06 12:16:59;;;;;;;;;;;26.00;37.00;;;24.50;39.60;101598.81;12247905;19;19918;-87
2022/09/06 12:21:00;;;;;;;;;;;26.00;37.10;;;24.42;39.28;101577.38;12251555;19;19911;-86
2022/09/06 12:25:17;;;;;;;;;;;26.10;37.20;;;24.47;39.42;101583.13;12253142;19;19933;-87
2022/09/06 12:29:26;;;;;;;;;;;26.10;37.20;;;24.54;39.48;101592.16;12252932;19;19914;-89
2022/09/06 12:33:32;;;;;;;;;;;26.10;36.90;;;24.19;39.45;101529.78;12251430;19;20276;-88
2022/09/06 12:37:36;;;;;;;;;;;26.10;36.90;;;24.46;39.49;101568.06;12251013;19;19915;-87
2022/09/06 12:41:47;;;;;;;;;;;26.10;36.90;;;24.53;39.66;101584.31;12248963;19;20329;-89
2022/09/06 12:45:50;;;;;;;;;;;26.10;36.90;;;24.48;39.20;101574.09;12252353;19;19922;-87
2022/09/06 12:50:17;;;;;;;;;;;26.30;36.70;;;24.57;39.55;101578.50;12253508;19;20282;-88
2022/09/06 12:54:19;;;;;;;;;;;26.10;37.00;;;24.56;39.41;101574.16;12257736;19;19919;-88
2022/09/06 12:58:26;;;;;;;;;;;26.30;37.10;;;24.67;39.48;101571.22;12252490;19;19985;-88
2022/09/06 13:02:54;;;;;;;;;;;26.10;37.00;;;24.57;39.42;101537.59;12253801;19;19927;-88
2022/09/06 13:06:55;;;;;;;;;;;26.20;37.00;;;24.71;39.39;101545.91;12255827;19;19911;-88
2022/09/06 13:10:57;;;;;;;;;;;26.20;36.50;;;24.76;39.55;101547.25;12251645;19;19935;-88
2022/09/06 13:15:27;;;;;;;;;;;26.30;36.80;;;24.88;39.01;101552.16;12255120;19;19910;-87
2022/09/06 13:19:34;;;;;;;;;;;26.30;37.10;;;24.94;39.47;101548.84;12247746;19;20361;-87
2022/09/06 13:23:42;;;;;;;;;;;26.40;36.90;;;25.04;38.98;101546.06;12241541;19;19914;-87
2022/09/06 13:27:45;;;;;;;;;;;26.40;37.00;;;25.04;39.01;101527.38;12244247;19;19949;-88
2022/09/06 13:31:56;;;;;;;;;;;26.70;37.10;;;25.21;38.85;101530.97;12240174;19;19927;-90
2022/09/06 13:36:09;;;;;;;;;;;26.60;37.30;;;25.29;38.81;101527.50;12242185;19;19910;-91
2022/09/06 13:40:40;;;;;;;;;;;26.70;36.90;;;25.31;38.80;101525.50;12243390;19;19927;-89
2022/09/06 13:44:42;;;;;;;;;;;26.70;37.00;;;25.19;39.34;101500.88;12242423;19;19943;-90
2022/09/06 13:48:44;;;;;;;;;;;26.70;36.70;;;25.12;38.93;101494.50;12244796;19;19919;-90
2022/09/06 13:52:45;;;;;;;;;;;26.80;36.90;;;25.24;39.03;101519.94;12247215;19;19929;-89
2022/09/06 13:56:48;;;;;;;;;;;26.80;36.80;;;25.16;38.93;101509.22;12245265;19;19935;-88
2022/09/06 14:00:50;;;;;;;;;;;27.00;36.80;;;25.13;39.06;101509.53;12240973;19;20329;-89
2022/09/06 14:04:52;;;;;;;;;;;26.80;36.70;;;25.14;39.02;101519.19;12241813;19;20440;-90
2022/09/06 14:08:53;;;;;;;;;;;26.80;36.80;;;25.22;39.21;101537.16;12243425;19;19919;-90
2022/09/06 14:12:57;;;;;;;;;;;26.80;36.60;;;25.04;38.64;101503.31;12244628;19;19953;-89
2022/09/06 14:17:00;;;;;;;;;;;26.70;36.80;;;25.10;39.10;101524.03;12240052;19;20487;-91
2022/09/06 14:21:04;;;;;;;;;;;26.70;36.70;;;24.71;38.63;101465.75;12231673;19;19943;-91
2022/09/06 14:25:06;;;;;;;;;;;26.70;36.60;;;24.75;38.84;101470.78;12235579;19;19922;-91
2022/09/06 14:29:07;;;;;;;;;;;26.70;36.70;;;25.01;38.50;101510.81;12218329;19;19955;-86
2022/09/06 14:33:10;;;;;;;;;;;26.70;36.60;;;25.11;38.62;101516.84;12232679;19;19935;-86
2022/09/06 14:37:12;;;;;;;;;;;26.70;36.90;;;24.78;38.88;101460.59;12239842;19;19934;-86
2022/09/06 14:41:14;;;;;;;;;;;26.70;36.70;;;25.22;39.00;101515.75;12254990;19;19922;-86
2022/09/06 14:45:16;;;;;;;;;;;26.70;36.80;;;25.15;38.76;101499.53;12255859;19;19911;-85
2022/09/06 14:49:19;;;;;;;;;;;26.70;36.80;;;25.15;39.05;101488.84;12247044;19;19978;-86
2022/09/06 14:53:20;;;;;;;;;;;26.70;36.70;;;25.24;38.62;101487.88;12253973;19;19922;-86
2022/09/06 14:57:22;;;;;;;;;;;26.80;36.90;;;25.08;38.72;101461.88;12244902;19;19935;-90
2022/09/06 15:01:27;;;;;;;;;;;26.90;36.80;;;25.32;38.70;101487.06;12217115;19;19934;-86
2022/09/06 15:09:36;;;;;;;;;;;26.90;36.50;;;25.33;38.70;101464.66;12224978;19;19922;-92
2022/09/06 15:13:39;;;;;;;;;;;27.00;36.90;;;25.21;38.62;101432.06;12253212;19;19922;-92
2022/09/06 15:17:40;;;;;;;;;;;27.00;36.70;;;25.29;38.30;101436.59;12259285;19;19926;-89
2022/09/06 15:21:42;;;;;;;;;;;27.00;36.60;;;25.40;38.73;101444.28;12254850;19;19930;-91
2022/09/06 15:25:52;;;;;;;;;;;27.10;36.60;;;25.65;38.87;101477.25;12249255;19;19987;-90
2022/09/06 15:29:53;;;;;;;;;;;27.10;36.60;;;25.45;38.76;101433.94;12254499;19;20330;-90
2022/09/06 15:33:55;;;;;;;;;;;27.20;36.70;;;25.72;38.24;101464.91;12253194;19;19911;-92
2022/09/06 15:37:56;;;;;;;;;;;27.20;36.80;;;25.50;38.07;101423.59;12254180;19;20341;-88
2022/09/06 15:41:58;;;;;;;;;;;27.20;36.60;;;25.79;38.80;101465.94;12243573;19;20263;-90
2022/09/06 15:45:59;;;;;;;;;;;27.20;36.60;;;25.37;38.54;101402.69;12250994;19;19930;-90
2022/09/06 15:50:01;;;;;;;;;;;27.20;36.30;;;25.38;38.49;101407.03;12252769;19;20311;-92
2022/09/06 15:54:03;;;;;;;;;;;27.30;36.40;;;25.39;38.37;101414.06;12251391;19;20295;-90
2022/09/06 15:58:05;;;;;;;;;;;27.20;36.30;;;25.20;38.24;101384.13;12255402;19;20019;-90
2022/09/06 16:02:15;;;;;;;;;;;27.20;36.50;;;25.54;38.60;101440.97;12237519;19;20283;-90
2022/09/06 16:06:23;;;;;;;;;;;27.20;36.60;;;25.44;38.58;101431.41;12248015;19;20343;-91
2022/09/06 16:10:25;;;;;;;;;;;27.10;36.40;;;25.07;38.21;101377.38;12252401;19;19926;-91
2022/09/06 16:14:27;;;;;;;;;;;27.10;36.40;;;25.24;38.72;101407.66;12253293;19;20290;-92
2022/09/06 16:18:34;;;;;;;;;;;27.10;36.40;;;25.48;38.27;101449.66;12252336;19;19923;-91
2022/09/06 16:22:36;;;;;;;;;;;27.00;36.40;;;25.12;38.49;101399.09;12251877;19;19922;-91
2022/09/06 16:26:42;;;;;;;;;;;27.00;36.30;;;25.36;38.18;101453.66;12249144;19;19932;-92
2022/09/06 16:30:43;;;;;;;;;;;26.90;36.30;;;25.20;38.21;101416.19;12247308;19;19918;-91
2022/09/06 16:34:45;;;;;;;;;;;26.90;36.20;;;25.09;38.36;101419.97;12252536;19;19919;-90
2022/09/06 16:38:47;;;;;;;;;;;27.10;36.30;;;25.14;38.13;101447.91;12253085;19;19918;-90
2022/09/06 16:42:48;;;;;;;;;;;26.70;36.30;;;24.85;38.61;101412.72;12250593;19;19933;-90
2022/09/06 16:46:52;;;;;;;;;;;26.60;36.20;;;24.54;38.37;101373.16;12248809;19;19944;-90
2022/09/06 16:50:53;;;;;;;;;;;26.60;36.20;;;24.70;38.32;101407.97;12250884;19;19915;-89
2022/09/06 16:54:59;;;;;;;;;;;26.60;36.20;;;24.85;38.59;101448.28;12247617;19;20460;-91
2022/09/06 16:59:03;;;;;;;;;;;26.50;36.10;;;24.44;38.24;101385.84;12243323;19;19918;-90
2022/09/06 17:03:07;;;;;;;;;;;26.60;36.20;;;24.79;38.22;101445.41;12248430;19;19923;-89
2022/09/06 17:07:12;;;;;;;;;;;26.30;36.10;;;24.79;38.42;101440.06;12251431;19;19927;-91
2022/09/06 17:11:20;;;;;;;;;;;26.30;36.10;;;24.38;38.46;101376.56;12244658;19;19921;-89
2022/09/06 17:15:22;;;;;;;;;;;26.30;36.10;;;24.74;38.38;101440.56;12244713;19;19941;-91
2022/09/06 17:19:25;;;;;;;;;;;26.30;36.20;;;24.53;38.44;101411.56;12243933;19;19915;-90
2022/09/06 17:23:27;;;;;;;;;;;26.20;36.10;;;24.43;38.30;101392.13;12244059;19;19911;-90
2022/09/06 17:27:34;;;;;;;;;;;26.30;36.30;;;24.69;38.01;101434.84;12247631;19;19923;-89
2022/09/06 17:31:36;;;;;;;;;;;26.20;36.20;;;24.26;38.56;101377.84;12243048;19;20218;-90
2022/09/06 17:35:41;;;;;;;;;;;26.20;36.20;;;24.46;38.12;101415.84;12245564;19;19927;-89
2022/09/06 17:39:50;;;;;;;;;;;26.20;36.20;;;24.22;38.28;101390.69;12247670;19;19923;-88
2022/09/06 17:43:53;;;;;;;;;;;26.40;36.30;;;24.51;38.09;101432.25;12244474;19;19918;-89
2022/09/06 17:47:56;;;;;;;;;;;26.10;36.20;;;23.98;38.39;101362.00;12250584;19;19915;-90
2022/09/06 17:51:57;;;;;;;;;;;25.80;36.10;;;24.41;38.10;101455.50;12251017;19;19922;-90
2022/09/06 17:56:12;;;;;;;;;;;26.00;36.20;;;24.36;38.21;101442.66;12252080;19;19947;-89
2022/09/06 18:00:14;;;;;;;;;;;26.00;36.20;;;23.94;38.41;101394.50;12250053;19;19919;-89
2022/09/06 18:04:18;;;;;;;;;;;25.80;36.10;;;23.85;38.15;101380.25;12243948;19;19941;-89
2022/09/06 18:08:26;;;;;;;;;;;25.90;36.20;;;24.16;38.43;101442.00;12249633;19;19929;-88
2022/09/06 18:12:29;;;;;;;;;;;25.90;36.20;;;23.96;38.35;101422.69;12259622;19;19907;-90
2022/09/06 18:16:36;;;;;;;;;;;25.90;36.30;;;24.00;38.15;101433.88;12262758;19;19919;-89
2022/09/06 18:20:38;;;;;;;;;;;25.50;36.00;;;23.61;38.46;101376.38;12257645;19;19915;-89
2022/09/06 18:24:40;;;;;;;;;;;25.60;36.20;;;23.29;38.22;101334.25;12256184;19;20287;-88
2022/09/06 18:28:46;;;;;;;;;;;25.60;36.20;;;23.73;38.64;101417.00;12256171;19;19934;-89
2022/09/06 18:32:51;;;;;;;;;;;25.60;36.20;;;23.84;38.37;101456.78;12254089;19;19907;-88